createdAt,value
2018-08-04T10:13:12.492Z,24.90
2018-08-04T10:15:40.358Z,25.20
2018-08-04T10:18:07.912Z,25.40
2018-08-04T10:20:35.436Z,25.60
2018-08-04T10:23:03.028Z,25.80
2018-08-04T10:25:30.556Z,25.80
2018-08-04T10:27:58.144Z,25.60
2018-08-04T10:30:25.753Z,25.20
2018-08-04T10:32:53.297Z,24.90
2018-08-04T10:35:20.818Z,24.80
2018-08-04T10:37:48.368Z,24.70
2018-08-04T10:40:15.930Z,24.70
2018-08-04T10:42:43.562Z,24.70
2018-08-04T10:45:12.341Z,24.70
2018-08-04T10:47:39.884Z,24.60
2018-08-04T10:50:07.420Z,24.70
2018-08-04T10:52:34.972Z,24.60
2018-08-04T10:55:02.492Z,24.60
2018-08-04T10:57:30.096Z,24.60
2018-08-04T10:59:57.671Z,24.60
2018-08-04T11:02:25.222Z,24.50
2018-08-04T11:04:52.773Z,24.50
2018-08-04T11:07:20.296Z,24.50
2018-08-04T11:09:47.816Z,24.50
2018-08-04T11:12:15.432Z,24.50
2018-08-04T11:14:42.972Z,24.50
2018-08-04T11:17:11.460Z,24.40
2018-08-04T11:19:38.988Z,24.50
2018-08-04T11:22:07.291Z,24.40
2018-08-04T11:24:34.889Z,24.50
2018-08-04T11:27:02.419Z,24.50
2018-08-04T11:29:29.944Z,24.50
2018-08-04T11:31:57.518Z,24.50
2018-08-04T11:34:25.195Z,24.50
2018-08-04T11:36:52.716Z,24.50
2018-08-04T11:39:20.237Z,24.50
2018-08-04T11:41:47.755Z,24.50
2018-08-04T11:44:15.313Z,24.50
2018-08-04T11:46:42.840Z,24.50
2018-08-04T11:49:10.415Z,24.50
2018-08-04T11:51:38.005Z,24.50
2018-08-04T11:54:05.640Z,24.50
2018-08-04T11:56:33.198Z,24.50
2018-08-04T11:59:00.838Z,24.60
2018-08-04T12:01:28.356Z,24.60
2018-08-04T12:03:55.871Z,24.60
2018-08-04T12:06:23.460Z,24.60
2018-08-04T12:08:51.020Z,24.60
2018-08-04T12:11:18.617Z,24.60
2018-08-04T12:13:46.141Z,24.70
2018-08-04T12:16:13.679Z,24.70
2018-08-04T12:18:41.235Z,24.70
2018-08-04T12:21:08.800Z,24.70
2018-08-04T12:23:36.406Z,24.70
2018-08-04T12:26:04.128Z,24.70
2018-08-04T12:28:31.695Z,24.60
2018-08-04T12:30:59.223Z,24.70
2018-08-04T12:33:26.828Z,24.60
2018-08-04T12:35:54.384Z,24.60
2018-08-04T12:38:22.052Z,24.60
2018-08-04T12:40:49.592Z,24.60
2018-08-04T12:43:17.112Z,24.70
2018-08-04T12:45:44.650Z,24.80
2018-08-04T12:48:12.184Z,24.90
2018-08-04T12:50:39.754Z,24.90
2018-08-04T12:53:07.264Z,24.90
2018-08-04T12:55:34.797Z,24.90
2018-08-04T12:58:02.328Z,24.90
2018-08-04T13:00:29.872Z,25.00
2018-08-04T13:02:57.395Z,25.00
2018-08-04T13:05:24.929Z,25.00
2018-08-04T13:07:52.460Z,25.00
2018-08-04T13:10:19.996Z,25.10
2018-08-04T13:12:47.538Z,25.10
2018-08-04T13:15:15.085Z,25.00
2018-08-04T13:17:42.612Z,25.10
2018-08-04T13:20:10.157Z,25.10
2018-08-04T13:22:37.680Z,25.10
2018-08-04T13:25:05.236Z,25.20
2018-08-04T13:27:33.004Z,25.30
2018-08-04T13:30:00.789Z,25.30
2018-08-04T13:32:28.523Z,25.40
2018-08-04T13:34:56.047Z,25.40
2018-08-04T13:37:23.585Z,25.40
2018-08-04T13:39:51.113Z,25.40
2018-08-04T13:42:18.649Z,25.40
2018-08-04T13:44:46.185Z,25.50
2018-08-04T13:47:13.731Z,25.50
2018-08-04T13:49:41.261Z,25.50
2018-08-04T13:52:08.796Z,25.50
2018-08-04T13:54:36.464Z,25.50
2018-08-04T13:57:03.996Z,25.60
2018-08-04T13:59:31.543Z,25.60
2018-08-04T14:01:59.064Z,25.60
2018-08-04T14:04:26.596Z,25.60
2018-08-04T14:06:54.147Z,25.60
2018-08-04T14:09:21.696Z,25.60
2018-08-04T14:11:49.220Z,25.60
2018-08-04T14:14:16.747Z,25.60
2018-08-04T14:16:44.280Z,25.60
2018-08-04T14:19:11.811Z,25.60
2018-08-04T14:21:39.348Z,25.60
2018-08-04T14:24:06.888Z,25.60
2018-08-04T14:26:34.464Z,25.60
2018-08-04T14:29:04.141Z,25.60
2018-08-04T14:31:31.705Z,25.60
2018-08-04T14:33:59.231Z,25.60
2018-08-04T14:36:26.800Z,25.60
2018-08-04T14:38:54.329Z,25.60
2018-08-04T14:41:21.880Z,25.60
2018-08-04T14:43:49.397Z,25.60
2018-08-04T14:46:17.120Z,25.60
2018-08-04T14:48:44.683Z,25.60
2018-08-04T14:51:12.232Z,25.60
2018-08-04T14:53:39.758Z,25.60
2018-08-04T14:56:07.336Z,25.60
2018-08-04T14:58:34.856Z,25.60
2018-08-04T15:01:02.433Z,25.60
2018-08-04T15:03:29.973Z,25.60
2018-08-04T15:05:57.536Z,25.60
2018-08-04T15:08:25.067Z,25.60
2018-08-04T15:10:52.638Z,25.60
2018-08-04T15:13:20.160Z,25.60
2018-08-04T15:15:47.964Z,25.60
2018-08-04T15:18:15.452Z,25.60
2018-08-04T15:20:43.010Z,25.60
2018-08-04T15:23:10.524Z,25.70
2018-08-04T15:25:38.079Z,25.70
2018-08-04T15:28:05.655Z,25.70
2018-08-04T15:30:33.224Z,25.70
2018-08-04T15:33:01.279Z,25.70
2018-08-04T15:35:29.084Z,25.70
2018-08-04T15:37:56.631Z,25.70
2018-08-04T15:40:24.180Z,25.70
2018-08-04T15:42:51.719Z,25.70
2018-08-04T15:45:19.236Z,25.70
2018-08-04T15:47:46.760Z,25.70
2018-08-04T15:50:14.300Z,25.70
2018-08-04T15:52:41.829Z,25.70
2018-08-04T15:55:09.356Z,25.70
2018-08-04T15:57:37.044Z,25.70
2018-08-04T16:00:05.257Z,25.70
2018-08-04T16:02:32.803Z,25.70
2018-08-04T16:05:00.384Z,25.70
2018-08-04T16:07:27.935Z,25.70
2018-08-04T16:09:56.047Z,25.70
2018-08-04T16:12:23.598Z,25.70
2018-08-04T16:14:51.134Z,25.70
2018-08-04T16:17:18.850Z,25.70
2018-08-04T16:19:46.376Z,25.70
2018-08-04T16:22:13.925Z,25.80
2018-08-04T16:24:41.457Z,25.80
2018-08-04T16:27:09.020Z,25.80
2018-08-04T16:29:36.573Z,25.80
2018-08-04T16:32:04.232Z,25.80
2018-08-04T16:34:31.798Z,25.80
2018-08-04T16:36:59.352Z,25.90
2018-08-04T16:39:26.900Z,25.90
2018-08-04T16:41:54.502Z,25.90
2018-08-04T16:44:22.029Z,25.90
2018-08-04T16:46:49.568Z,25.90
2018-08-04T16:49:17.096Z,26.00
2018-08-04T16:51:44.643Z,26.00
2018-08-04T16:54:12.192Z,26.00
2018-08-04T16:56:39.720Z,26.00
2018-08-04T16:59:07.261Z,26.00
2018-08-04T17:01:34.788Z,26.00
2018-08-04T17:04:02.328Z,26.00
2018-08-04T17:06:29.879Z,26.00
2018-08-04T17:08:57.399Z,26.00
2018-08-04T17:11:25.047Z,26.00
2018-08-04T17:13:52.793Z,26.00
2018-08-04T17:16:20.344Z,26.00
2018-08-04T17:18:47.868Z,26.00
2018-08-04T17:21:15.384Z,26.00
2018-08-04T17:23:42.908Z,26.00
2018-08-04T17:26:10.437Z,26.00
2018-08-04T17:28:38.000Z,26.00
2018-08-04T17:31:05.533Z,26.00
2018-08-04T17:33:33.074Z,26.00
2018-08-04T17:36:00.619Z,26.00
2018-08-04T17:38:28.164Z,26.00
2018-08-04T17:40:55.690Z,26.00
2018-08-04T17:43:23.224Z,26.00
2018-08-04T17:45:50.747Z,26.00
2018-08-04T17:48:18.313Z,26.00
2018-08-04T17:50:45.836Z,26.00
2018-08-04T17:53:13.381Z,25.90
2018-08-04T17:55:40.920Z,25.90
2018-08-04T17:58:08.463Z,25.90
2018-08-04T18:00:36.011Z,25.90
2018-08-04T18:03:03.568Z,25.90
2018-08-04T18:05:31.081Z,25.90
2018-08-04T18:07:58.633Z,25.90
2018-08-04T18:10:26.167Z,25.90
2018-08-04T18:12:53.716Z,25.90
2018-08-04T18:15:21.267Z,25.80
2018-08-04T18:17:48.899Z,25.80
2018-08-04T18:20:16.436Z,25.80
2018-08-04T18:22:44.151Z,25.80
2018-08-04T18:25:11.685Z,25.80
2018-08-04T18:27:39.211Z,25.70
2018-08-04T18:30:06.838Z,25.80
2018-08-04T18:32:34.309Z,25.70
2018-08-04T18:35:01.841Z,25.70
2018-08-04T18:37:29.729Z,25.70
2018-08-04T18:39:57.262Z,25.70
2018-08-04T18:42:24.780Z,25.60
2018-08-04T18:44:52.308Z,25.60
2018-08-04T18:47:19.835Z,25.60
2018-08-04T18:49:47.356Z,25.60
2018-08-04T18:52:14.876Z,25.60
2018-08-04T18:54:42.403Z,25.60
2018-08-04T18:57:09.932Z,25.50
2018-08-04T18:59:37.463Z,25.50
2018-08-04T19:02:04.984Z,25.50
2018-08-04T19:04:32.509Z,25.50
2018-08-04T19:07:00.032Z,25.50
2018-08-04T19:09:27.552Z,25.50
2018-08-04T19:11:55.073Z,25.50
2018-08-04T19:14:22.604Z,25.40
2018-08-04T19:16:50.120Z,25.40
2018-08-04T19:19:17.637Z,25.40
2018-08-04T19:21:45.161Z,25.40
2018-08-04T19:24:12.686Z,25.40
2018-08-04T19:26:40.468Z,25.40
2018-08-04T19:29:07.993Z,25.30
2018-08-04T19:31:35.520Z,25.30
2018-08-04T19:34:03.119Z,25.30
2018-08-04T19:36:30.649Z,25.30
2018-08-04T19:38:58.192Z,25.30
2018-08-04T19:41:27.815Z,25.30
2018-08-04T19:43:55.458Z,25.30
2018-08-04T19:46:22.952Z,25.30
2018-08-04T19:48:50.614Z,25.30
2018-08-04T19:51:18.159Z,25.20
2018-08-04T19:53:45.720Z,25.20
2018-08-04T19:56:13.277Z,25.20
2018-08-04T19:58:40.823Z,25.20
2018-08-04T20:01:08.390Z,25.20
2018-08-04T20:03:35.952Z,25.20
2018-08-04T20:06:03.474Z,25.20
2018-08-04T20:08:31.245Z,25.20
2018-08-04T20:10:58.835Z,25.20
2018-08-04T20:13:26.359Z,25.10
2018-08-04T20:15:53.892Z,25.10
2018-08-04T20:18:21.424Z,25.10
2018-08-04T20:20:48.955Z,25.10
2018-08-04T20:23:16.490Z,25.10
2018-08-04T20:25:44.003Z,25.00
2018-08-04T20:28:11.527Z,25.00
2018-08-04T20:30:39.068Z,25.00
2018-08-04T20:33:06.596Z,25.00
2018-08-04T20:35:34.128Z,25.00
2018-08-04T20:38:01.657Z,25.00
2018-08-04T20:40:29.237Z,25.10
2018-08-04T20:42:56.828Z,25.10
2018-08-04T20:45:24.376Z,25.10
2018-08-04T20:47:51.912Z,25.10
2018-08-04T20:50:19.455Z,25.10
2018-08-04T20:52:46.992Z,25.10
2018-08-04T20:55:14.567Z,25.20
2018-08-04T20:57:42.093Z,25.20
2018-08-04T21:00:09.636Z,25.20
2018-08-04T21:02:37.181Z,25.20
2018-08-04T21:05:04.728Z,25.30
2018-08-04T21:07:32.254Z,25.30
2018-08-04T21:09:59.803Z,25.30
2018-08-04T21:12:27.336Z,25.30
2018-08-04T21:14:54.895Z,25.40
2018-08-04T21:17:22.428Z,25.50
2018-08-04T21:19:49.963Z,25.50
2018-08-04T21:22:17.496Z,25.40
2018-08-04T21:24:45.057Z,25.40
2018-08-04T21:27:12.567Z,25.30
2018-08-04T21:29:40.136Z,25.40
2018-08-04T21:32:07.661Z,25.30
2018-08-04T21:34:35.201Z,25.30
2018-08-04T21:37:02.720Z,25.30
2018-08-04T21:39:30.301Z,25.20
2018-08-04T21:41:59.265Z,25.20
2018-08-04T21:44:26.800Z,25.20
2018-08-04T21:46:54.352Z,25.20
2018-08-04T21:49:21.929Z,25.20
2018-08-04T21:51:50.555Z,25.20
2018-08-04T21:54:19.919Z,25.20
2018-08-04T21:56:46.696Z,25.20
2018-08-04T21:59:14.212Z,25.20
2018-08-04T22:01:47.215Z,25.20
2018-08-04T22:04:14.795Z,25.20
